Terminal Aerodrome Forecast
Issued by NWS

Home | Current Version | Previous Version | Graphics & Text | Print | Product List | Glossary On
Versions: 1 2 3 4 5 6 7 8 9 10 11 12 13 14
000
FTUS42 KMHX 242200 AAA
TAFOAJ
TAF AMD
KOAJ 242238Z 2423/2518 19008KT P6SM VCSH BKN070 BKN080
     FM250100 19010KT 4SM BR VCSH OVC007
     FM250700 21012KT 4SM BR VCSH OVC015
     FM250900 25010KT P6SM OVC050
      AMD LTD TO CLD VIS AND WIND=

USA.gov is the U.S. government's official web portal to all federal, state and local government web resources and services.